sensor_id;sensor_type;location;lat;lon;timestamp;P1;durP1;ratioP1;P2;durP2;ratioP2
21152;SDS011;10734;44.792;20.482;2023-03-01T00:02:23;112.63;;;39.13;;
21152;SDS011;10734;44.792;20.482;2023-03-01T00:04:49;119.03;;;42.03;;
21152;SDS011;10734;44.792;20.482;2023-03-01T00:07:16;127.15;;;40.80;;
21152;SDS011;10734;44.792;20.482;2023-03-01T00:09:42;122.43;;;41.33;;
21152;SDS011;10734;44.792;20.482;2023-03-01T00:12:12;120.45;;;41.95;;
21152;SDS011;10734;44.792;20.482;2023-03-01T00:14:38;127.43;;;40.97;;
21152;SDS011;10734;44.792;20.482;2023-03-01T00:17:05;119.28;;;42.47;;
21152;SDS011;10734;44.792;20.482;2023-03-01T00:19:31;131.23;;;43.38;;
21152;SDS011;10734;44.792;20.482;2023-03-01T00:21:58;136.13;;;44.20;;
21152;SDS011;10734;44.792;20.482;2023-03-01T00:24:25;117.75;;;41.47;;
21152;SDS011;10734;44.792;20.482;2023-03-01T00:26:54;132.65;;;45.03;;
21152;SDS011;10734;44.792;20.482;2023-03-01T00:29:24;139.70;;;44.78;;
21152;SDS011;10734;44.792;20.482;2023-03-01T00:31:51;130.45;;;42.47;;
21152;SDS011;10734;44.792;20.482;2023-03-01T00:34:17;131.57;;;44.15;;
21152;SDS011;10734;44.792;20.482;2023-03-01T00:36:44;116.88;;;42.00;;
21152;SDS011;10734;44.792;20.482;2023-03-01T00:39:11;132.40;;;43.03;;
21152;SDS011;10734;44.792;20.482;2023-03-01T00:41:38;125.60;;;40.95;;
21152;SDS011;10734;44.792;20.482;2023-03-01T00:44:06;121.97;;;42.20;;
21152;SDS011;10734;44.792;20.482;2023-03-01T00:46:32;130.95;;;44.85;;
21152;SDS011;10734;44.792;20.482;2023-03-01T00:49:00;130.88;;;43.28;;
21152;SDS011;10734;44.792;20.482;2023-03-01T00:51:28;138.40;;;48.40;;
21152;SDS011;10734;44.792;20.482;2023-03-01T00:53:56;136.90;;;46.35;;
21152;SDS011;10734;44.792;20.482;2023-03-01T00:56:25;128.52;;;44.78;;
21152;SDS011;10734;44.792;20.482;2023-03-01T00:58:52;117.20;;;42.15;;
21152;SDS011;10734;44.792;20.482;2023-03-01T01:01:20;124.70;;;43.28;;
21152;SDS011;10734;44.792;20.482;2023-03-01T01:03:48;126.88;;;44.22;;
21152;SDS011;10734;44.792;20.482;2023-03-01T01:06:19;118.93;;;42.85;;
21152;SDS011;10734;44.792;20.482;2023-03-01T01:08:46;84.70;;;30.60;;
21152;SDS011;10734;44.792;20.482;2023-03-01T01:11:13;123.25;;;42.88;;
21152;SDS011;10734;44.792;20.482;2023-03-01T01:13:40;144.98;;;45.58;;
21152;SDS011;10734;44.792;20.482;2023-03-01T01:16:07;133.43;;;45.40;;
21152;SDS011;10734;44.792;20.482;2023-03-01T01:18:34;143.27;;;44.22;;
21152;SDS011;10734;44.792;20.482;2023-03-01T01:21:05;128.30;;;40.75;;
21152;SDS011;10734;44.792;20.482;2023-03-01T01:23:31;132.52;;;43.40;;
21152;SDS011;10734;44.792;20.482;2023-03-01T01:26:03;135.40;;;43.80;;
21152;SDS011;10734;44.792;20.482;2023-03-01T01:28:29;91.87;;;31.67;;
21152;SDS011;10734;44.792;20.482;2023-03-01T01:30:56;134.52;;;45.50;;
21152;SDS011;10734;44.792;20.482;2023-03-01T01:33:22;141.93;;;47.97;;
21152;SDS011;10734;44.792;20.482;2023-03-01T01:35:49;139.48;;;48.05;;
21152;SDS011;10734;44.792;20.482;2023-03-01T01:38:15;117.72;;;43.35;;
21152;SDS011;10734;44.792;20.482;2023-03-01T01:40:45;127.93;;;44.38;;
21152;SDS011;10734;44.792;20.482;2023-03-01T01:43:16;139.85;;;46.38;;
21152;SDS011;10734;44.792;20.482;2023-03-01T01:45:44;122.03;;;42.47;;
21152;SDS011;10734;44.792;20.482;2023-03-01T01:48:11;119.85;;;43.13;;
21152;SDS011;10734;44.792;20.482;2023-03-01T01:50:39;128.18;;;43.05;;
21152;SDS011;10734;44.792;20.482;2023-03-01T01:53:08;130.75;;;42.83;;
21152;SDS011;10734;44.792;20.482;2023-03-01T01:55:36;133.43;;;46.55;;
21152;SDS011;10734;44.792;20.482;2023-03-01T01:58:04;117.80;;;42.20;;
21152;SDS011;10734;44.792;20.482;2023-03-01T02:00:31;131.35;;;47.03;;
21152;SDS011;10734;44.792;20.482;2023-03-01T02:02:59;145.65;;;48.92;;
21152;SDS011;10734;44.792;20.482;2023-03-01T02:05:34;115.95;;;43.33;;
21152;SDS011;10734;44.792;20.482;2023-03-01T02:08:03;123.25;;;45.20;;
21152;SDS011;10734;44.792;20.482;2023-03-01T02:10:29;114.28;;;44.20;;
21152;SDS011;10734;44.792;20.482;2023-03-01T02:12:59;137.68;;;45.45;;
21152;SDS011;10734;44.792;20.482;2023-03-01T02:15:26;128.40;;;46.35;;
21152;SDS011;10734;44.792;20.482;2023-03-01T02:17:52;128.10;;;45.83;;
21152;SDS011;10734;44.792;20.482;2023-03-01T02:23:04;134.38;;;48.10;;
21152;SDS011;10734;44.792;20.482;2023-03-01T02:25:34;148.05;;;50.13;;
21152;SDS011;10734;44.792;20.482;2023-03-01T02:30:42;133.95;;;48.03;;
21152;SDS011;10734;44.792;20.482;2023-03-01T02:33:29;140.60;;;50.78;;
21152;SDS011;10734;44.792;20.482;2023-03-01T02:36:00;137.57;;;48.92;;
21152;SDS011;10734;44.792;20.482;2023-03-01T02:38:27;138.70;;;48.42;;
21152;SDS011;10734;44.792;20.482;2023-03-01T02:40:53;130.60;;;49.80;;
21152;SDS011;10734;44.792;20.482;2023-03-01T02:43:20;128.75;;;49.30;;
21152;SDS011;10734;44.792;20.482;2023-03-01T02:45:49;121.70;;;48.83;;
21152;SDS011;10734;44.792;20.482;2023-03-01T02:48:17;131.52;;;49.15;;
21152;SDS011;10734;44.792;20.482;2023-03-01T02:50:46;115.53;;;47.03;;
21152;SDS011;10734;44.792;20.482;2023-03-01T02:56:03;104.40;;;44.60;;
21152;SDS011;10734;44.792;20.482;2023-03-01T02:58:29;104.53;;;44.33;;
21152;SDS011;10734;44.792;20.482;2023-03-01T03:00:56;104.88;;;45.75;;
21152;SDS011;10734;44.792;20.482;2023-03-01T03:03:23;113.45;;;47.78;;
21152;SDS011;10734;44.792;20.482;2023-03-01T03:05:49;103.15;;;44.95;;
21152;SDS011;10734;44.792;20.482;2023-03-01T03:08:16;98.57;;;43.75;;
21152;SDS011;10734;44.792;20.482;2023-03-01T03:10:50;101.75;;;45.05;;
21152;SDS011;10734;44.792;20.482;2023-03-01T03:13:17;112.13;;;47.20;;
21152;SDS011;10734;44.792;20.482;2023-03-01T03:15:44;88.90;;;42.28;;
21152;SDS011;10734;44.792;20.482;2023-03-01T03:18:12;99.78;;;45.17;;
21152;SDS011;10734;44.792;20.482;2023-03-01T03:20:40;90.50;;;43.40;;
21152;SDS011;10734;44.792;20.482;2023-03-01T03:23:07;92.95;;;42.30;;
21152;SDS011;10734;44.792;20.482;2023-03-01T03:25:34;94.20;;;44.65;;
21152;SDS011;10734;44.792;20.482;2023-03-01T03:28:04;96.68;;;44.75;;
21152;SDS011;10734;44.792;20.482;2023-03-01T03:30:36;87.55;;;43.25;;
21152;SDS011;10734;44.792;20.482;2023-03-01T03:33:05;91.97;;;43.13;;
21152;SDS011;10734;44.792;20.482;2023-03-01T03:35:33;90.07;;;43.38;;
21152;SDS011;10734;44.792;20.482;2023-03-01T03:38:00;89.13;;;43.70;;
21152;SDS011;10734;44.792;20.482;2023-03-01T03:40:31;91.15;;;43.03;;
21152;SDS011;10734;44.792;20.482;2023-03-01T03:42:58;85.75;;;42.70;;
21152;SDS011;10734;44.792;20.482;2023-03-01T03:45:25;102.50;;;48.60;;
21152;SDS011;10734;44.792;20.482;2023-03-01T03:47:51;91.95;;;46.58;;
21152;SDS011;10734;44.792;20.482;2023-03-01T03:50:18;92.32;;;45.80;;
21152;SDS011;10734;44.792;20.482;2023-03-01T03:52:44;88.70;;;42.83;;
21152;SDS011;10734;44.792;20.482;2023-03-01T03:55:11;100.50;;;47.05;;
21152;SDS011;10734;44.792;20.482;2023-03-01T03:57:38;88.68;;;42.72;;
21152;SDS011;10734;44.792;20.482;2023-03-01T04:00:06;84.18;;;41.33;;
21152;SDS011;10734;44.792;20.482;2023-03-01T04:02:42;98.55;;;48.53;;
21152;SDS011;10734;44.792;20.482;2023-03-01T04:05:09;94.53;;;43.88;;
21152;SDS011;10734;44.792;20.482;2023-03-01T04:07:36;90.25;;;45.55;;
21152;SDS011;10734;44.792;20.482;2023-03-01T04:10:06;92.03;;;44.25;;
21152;SDS011;10734;44.792;20.482;2023-03-01T04:12:34;104.05;;;48.88;;
21152;SDS011;10734;44.792;20.482;2023-03-01T04:15:01;108.80;;;54.20;;
21152;SDS011;10734;44.792;20.482;2023-03-01T04:17:29;105.45;;;53.08;;
21152;SDS011;10734;44.792;20.482;2023-03-01T04:19:56;103.53;;;50.65;;
21152;SDS011;10734;44.792;20.482;2023-03-01T04:22:22;101.22;;;51.50;;
21152;SDS011;10734;44.792;20.482;2023-03-01T04:24:49;100.55;;;53.40;;
21152;SDS011;10734;44.792;20.482;2023-03-01T04:27:15;98.75;;;49.28;;
21152;SDS011;10734;44.792;20.482;2023-03-01T04:29:42;95.72;;;50.28;;
21152;SDS011;10734;44.792;20.482;2023-03-01T04:32:08;96.32;;;49.97;;
21152;SDS011;10734;44.792;20.482;2023-03-01T04:34:35;93.50;;;47.38;;
21152;SDS011;10734;44.792;20.482;2023-03-01T04:37:01;96.90;;;50.08;;
21152;SDS011;10734;44.792;20.482;2023-03-01T04:39:28;99.05;;;51.05;;
21152;SDS011;10734;44.792;20.482;2023-03-01T04:41:54;93.90;;;49.05;;
21152;SDS011;10734;44.792;20.482;2023-03-01T04:44:20;100.07;;;51.17;;
21152;SDS011;10734;44.792;20.482;2023-03-01T04:46:48;98.93;;;48.30;;
21152;SDS011;10734;44.792;20.482;2023-03-01T04:49:15;95.38;;;48.67;;
21152;SDS011;10734;44.792;20.482;2023-03-01T04:51:42;89.95;;;48.08;;
21152;SDS011;10734;44.792;20.482;2023-03-01T04:54:09;97.07;;;49.65;;
21152;SDS011;10734;44.792;20.482;2023-03-01T04:56:36;80.15;;;43.72;;
21152;SDS011;10734;44.792;20.482;2023-03-01T04:59:03;82.40;;;44.45;;
21152;SDS011;10734;44.792;20.482;2023-03-01T05:01:31;80.75;;;43.42;;
21152;SDS011;10734;44.792;20.482;2023-03-01T05:03:58;96.78;;;47.38;;
21152;SDS011;10734;44.792;20.482;2023-03-01T05:06:29;86.50;;;44.47;;
21152;SDS011;10734;44.792;20.482;2023-03-01T05:08:56;80.53;;;42.85;;
21152;SDS011;10734;44.792;20.482;2023-03-01T05:11:22;77.78;;;39.45;;
21152;SDS011;10734;44.792;20.482;2023-03-01T05:13:49;83.22;;;41.25;;
21152;SDS011;10734;44.792;20.482;2023-03-01T05:16:21;76.43;;;39.33;;
21152;SDS011;10734;44.792;20.482;2023-03-01T05:18:47;65.13;;;35.03;;
21152;SDS011;10734;44.792;20.482;2023-03-01T05:21:16;65.05;;;37.08;;
21152;SDS011;10734;44.792;20.482;2023-03-01T05:23:43;67.50;;;36.33;;
21152;SDS011;10734;44.792;20.482;2023-03-01T05:26:10;73.22;;;38.13;;
21152;SDS011;10734;44.792;20.482;2023-03-01T05:28:53;62.15;;;31.45;;
21152;SDS011;10734;44.792;20.482;2023-03-01T05:31:25;61.58;;;32.78;;
21152;SDS011;10734;44.792;20.482;2023-03-01T05:33:52;54.88;;;31.02;;
21152;SDS011;10734;44.792;20.482;2023-03-01T05:36:19;63.47;;;34.20;;
21152;SDS011;10734;44.792;20.482;2023-03-01T05:38:45;67.07;;;35.15;;
21152;SDS011;10734;44.792;20.482;2023-03-01T05:41:15;63.03;;;36.10;;
21152;SDS011;10734;44.792;20.482;2023-03-01T05:43:43;75.85;;;37.90;;
21152;SDS011;10734;44.792;20.482;2023-03-01T05:46:11;60.25;;;32.80;;
21152;SDS011;10734;44.792;20.482;2023-03-01T05:48:39;70.78;;;37.42;;
21152;SDS011;10734;44.792;20.482;2023-03-01T05:51:06;71.13;;;35.20;;
21152;SDS011;10734;44.792;20.482;2023-03-01T05:53:32;67.60;;;33.80;;
21152;SDS011;10734;44.792;20.482;2023-03-01T05:55:59;62.85;;;33.92;;
21152;SDS011;10734;44.792;20.482;2023-03-01T05:58:26;54.25;;;30.90;;
21152;SDS011;10734;44.792;20.482;2023-03-01T06:00:53;52.03;;;28.23;;
21152;SDS011;10734;44.792;20.482;2023-03-01T06:03:22;56.15;;;28.23;;
21152;SDS011;10734;44.792;20.482;2023-03-01T06:05:48;47.20;;;27.05;;
21152;SDS011;10734;44.792;20.482;2023-03-01T06:08:15;51.58;;;27.45;;
21152;SDS011;10734;44.792;20.482;2023-03-01T06:10:41;49.15;;;27.27;;
21152;SDS011;10734;44.792;20.482;2023-03-01T06:13:08;44.35;;;25.10;;
21152;SDS011;10734;44.792;20.482;2023-03-01T06:15:34;40.90;;;23.90;;
21152;SDS011;10734;44.792;20.482;2023-03-01T06:18:01;45.88;;;24.48;;
21152;SDS011;10734;44.792;20.482;2023-03-01T06:20:28;43.28;;;25.23;;
21152;SDS011;10734;44.792;20.482;2023-03-01T06:22:55;43.08;;;23.90;;
21152;SDS011;10734;44.792;20.482;2023-03-01T06:25:22;41.67;;;23.70;;
21152;SDS011;10734;44.792;20.482;2023-03-01T06:27:49;45.53;;;23.40;;
21152;SDS011;10734;44.792;20.482;2023-03-01T06:30:16;41.25;;;23.38;;
21152;SDS011;10734;44.792;20.482;2023-03-01T06:32:43;41.65;;;22.48;;
21152;SDS011;10734;44.792;20.482;2023-03-01T06:35:11;40.03;;;23.08;;
21152;SDS011;10734;44.792;20.482;2023-03-01T06:37:38;36.03;;;21.13;;
21152;SDS011;10734;44.792;20.482;2023-03-01T06:40:04;41.00;;;22.60;;
21152;SDS011;10734;44.792;20.482;2023-03-01T06:42:44;37.55;;;22.08;;
21152;SDS011;10734;44.792;20.482;2023-03-01T06:45:13;35.13;;;21.42;;
21152;SDS011;10734;44.792;20.482;2023-03-01T06:47:39;38.63;;;21.77;;
21152;SDS011;10734;44.792;20.482;2023-03-01T06:50:06;39.70;;;22.80;;
21152;SDS011;10734;44.792;20.482;2023-03-01T06:52:33;36.63;;;21.02;;
21152;SDS011;10734;44.792;20.482;2023-03-01T06:55:00;36.03;;;21.20;;
21152;SDS011;10734;44.792;20.482;2023-03-01T06:57:26;39.67;;;22.08;;
21152;SDS011;10734;44.792;20.482;2023-03-01T06:59:53;44.22;;;23.58;;
21152;SDS011;10734;44.792;20.482;2023-03-01T07:02:19;43.78;;;22.60;;
21152;SDS011;10734;44.792;20.482;2023-03-01T07:04:46;34.83;;;21.38;;
21152;SDS011;10734;44.792;20.482;2023-03-01T07:07:12;38.30;;;22.38;;
21152;SDS011;10734;44.792;20.482;2023-03-01T07:09:39;41.25;;;21.65;;
21152;SDS011;10734;44.792;20.482;2023-03-01T07:12:05;39.72;;;23.70;;
21152;SDS011;10734;44.792;20.482;2023-03-01T07:14:32;41.25;;;20.63;;
21152;SDS011;10734;44.792;20.482;2023-03-01T07:16:58;36.92;;;22.27;;
21152;SDS011;10734;44.792;20.482;2023-03-01T07:19:25;32.75;;;19.23;;
21152;SDS011;10734;44.792;20.482;2023-03-01T07:21:51;36.47;;;19.20;;
21152;SDS011;10734;44.792;20.482;2023-03-01T07:24:18;33.72;;;18.92;;
21152;SDS011;10734;44.792;20.482;2023-03-01T07:26:47;29.05;;;17.52;;
21152;SDS011;10734;44.792;20.482;2023-03-01T07:29:14;31.08;;;17.75;;
21152;SDS011;10734;44.792;20.482;2023-03-01T07:31:40;34.10;;;19.77;;
21152;SDS011;10734;44.792;20.482;2023-03-01T07:34:07;31.50;;;19.42;;
21152;SDS011;10734;44.792;20.482;2023-03-01T07:36:33;36.15;;;19.65;;
21152;SDS011;10734;44.792;20.482;2023-03-01T07:39:00;33.67;;;20.38;;
21152;SDS011;10734;44.792;20.482;2023-03-01T07:41:29;33.42;;;19.65;;
21152;SDS011;10734;44.792;20.482;2023-03-01T07:43:55;31.00;;;18.05;;
21152;SDS011;10734;44.792;20.482;2023-03-01T07:46:22;34.35;;;18.23;;
21152;SDS011;10734;44.792;20.482;2023-03-01T07:48:48;30.98;;;16.70;;
21152;SDS011;10734;44.792;20.482;2023-03-01T07:51:15;32.65;;;17.25;;
21152;SDS011;10734;44.792;20.482;2023-03-01T07:53:42;30.65;;;16.63;;
21152;SDS011;10734;44.792;20.482;2023-03-01T07:56:09;31.15;;;15.82;;
21152;SDS011;10734;44.792;20.482;2023-03-01T07:58:37;28.20;;;14.68;;
21152;SDS011;10734;44.792;20.482;2023-03-01T08:01:04;26.25;;;14.85;;
21152;SDS011;10734;44.792;20.482;2023-03-01T08:03:32;21.25;;;12.95;;
21152;SDS011;10734;44.792;20.482;2023-03-01T08:05:59;32.25;;;16.88;;
21152;SDS011;10734;44.792;20.482;2023-03-01T08:08:26;22.70;;;12.00;;
21152;SDS011;10734;44.792;20.482;2023-03-01T08:10:52;22.15;;;10.85;;
21152;SDS011;10734;44.792;20.482;2023-03-01T08:13:22;20.55;;;11.35;;
21152;SDS011;10734;44.792;20.482;2023-03-01T08:15:49;18.88;;;10.48;;
21152;SDS011;10734;44.792;20.482;2023-03-01T08:18:16;22.80;;;11.90;;
21152;SDS011;10734;44.792;20.482;2023-03-01T08:20:42;24.20;;;11.90;;
21152;SDS011;10734;44.792;20.482;2023-03-01T08:23:09;21.27;;;11.32;;
21152;SDS011;10734;44.792;20.482;2023-03-01T08:25:36;18.80;;;10.32;;
21152;SDS011;10734;44.792;20.482;2023-03-01T08:28:02;18.15;;;10.95;;
21152;SDS011;10734;44.792;20.482;2023-03-01T08:30:29;21.83;;;10.52;;
21152;SDS011;10734;44.792;20.482;2023-03-01T08:32:55;17.45;;;9.45;;
21152;SDS011;10734;44.792;20.482;2023-03-01T08:35:22;21.05;;;10.65;;
21152;SDS011;10734;44.792;20.482;2023-03-01T08:37:49;15.35;;;9.77;;
21152;SDS011;10734;44.792;20.482;2023-03-01T08:40:16;15.65;;;10.07;;
21152;SDS011;10734;44.792;20.482;2023-03-01T08:42:42;19.92;;;9.40;;
21152;SDS011;10734;44.792;20.482;2023-03-01T08:45:09;14.93;;;8.02;;
21152;SDS011;10734;44.792;20.482;2023-03-01T08:47:36;10.55;;;6.72;;
21152;SDS011;10734;44.792;20.482;2023-03-01T08:50:03;9.07;;;5.25;;
21152;SDS011;10734;44.792;20.482;2023-03-01T08:52:31;9.75;;;6.35;;
21152;SDS011;10734;44.792;20.482;2023-03-01T08:54:58;13.05;;;7.57;;
21152;SDS011;10734;44.792;20.482;2023-03-01T08:57:24;11.65;;;6.03;;
21152;SDS011;10734;44.792;20.482;2023-03-01T08:59:51;10.52;;;5.43;;
21152;SDS011;10734;44.792;20.482;2023-03-01T09:02:18;10.25;;;5.63;;
21152;SDS011;10734;44.792;20.482;2023-03-01T09:04:45;12.50;;;5.55;;
21152;SDS011;10734;44.792;20.482;2023-03-01T09:07:11;10.23;;;5.97;;
21152;SDS011;10734;44.792;20.482;2023-03-01T09:09:38;7.18;;;5.00;;
21152;SDS011;10734;44.792;20.482;2023-03-01T09:12:04;9.57;;;5.13;;
21152;SDS011;10734;44.792;20.482;2023-03-01T09:14:31;9.52;;;5.38;;
21152;SDS011;10734;44.792;20.482;2023-03-01T09:16:58;10.80;;;6.63;;
21152;SDS011;10734;44.792;20.482;2023-03-01T09:19:24;6.70;;;4.30;;
21152;SDS011;10734;44.792;20.482;2023-03-01T09:21:52;7.03;;;4.32;;
21152;SDS011;10734;44.792;20.482;2023-03-01T09:24:20;8.43;;;5.10;;
21152;SDS011;10734;44.792;20.482;2023-03-01T09:26:47;6.28;;;3.70;;
21152;SDS011;10734;44.792;20.482;2023-03-01T09:29:16;11.23;;;4.68;;
21152;SDS011;10734;44.792;20.482;2023-03-01T09:31:43;10.52;;;5.38;;
21152;SDS011;10734;44.792;20.482;2023-03-01T09:34:09;6.90;;;4.65;;
21152;SDS011;10734;44.792;20.482;2023-03-01T09:36:36;9.23;;;5.95;;
21152;SDS011;10734;44.792;20.482;2023-03-01T09:39:03;12.55;;;7.53;;
21152;SDS011;10734;44.792;20.482;2023-03-01T09:44:00;12.93;;;7.82;;
21152;SDS011;10734;44.792;20.482;2023-03-01T09:46:30;8.77;;;5.93;;
21152;SDS011;10734;44.792;20.482;2023-03-01T09:49:01;7.85;;;4.90;;
21152;SDS011;10734;44.792;20.482;2023-03-01T09:51:32;7.97;;;5.20;;
21152;SDS011;10734;44.792;20.482;2023-03-01T09:54:03;7.60;;;5.13;;
21152;SDS011;10734;44.792;20.482;2023-03-01T09:56:40;6.63;;;4.88;;
21152;SDS011;10734;44.792;20.482;2023-03-01T10:04:42;9.95;;;5.32;;
21152;SDS011;10734;44.792;20.482;2023-03-01T10:07:23;7.63;;;4.82;;
21152;SDS011;10734;44.792;20.482;2023-03-01T10:09:53;14.32;;;7.10;;
21152;SDS011;10734;44.792;20.482;2023-03-01T10:12:24;14.18;;;6.70;;
21152;SDS011;10734;44.792;20.482;2023-03-01T10:14:55;8.48;;;5.45;;
21152;SDS011;10734;44.792;20.482;2023-03-01T10:17:30;7.88;;;5.40;;
21152;SDS011;10734;44.792;20.482;2023-03-01T10:20:08;9.32;;;5.70;;
21152;SDS011;10734;44.792;20.482;2023-03-01T10:22:38;9.32;;;5.22;;
21152;SDS011;10734;44.792;20.482;2023-03-01T10:25:05;10.57;;;5.10;;
21152;SDS011;10734;44.792;20.482;2023-03-01T10:30:05;7.78;;;4.05;;
21152;SDS011;10734;44.792;20.482;2023-03-01T10:32:33;12.10;;;5.90;;
21152;SDS011;10734;44.792;20.482;2023-03-01T10:34:59;12.00;;;4.95;;
21152;SDS011;10734;44.792;20.482;2023-03-01T10:37:26;10.07;;;5.55;;
21152;SDS011;10734;44.792;20.482;2023-03-01T10:39:54;6.68;;;4.57;;
21152;SDS011;10734;44.792;20.482;2023-03-01T10:42:31;7.25;;;3.88;;
21152;SDS011;10734;44.792;20.482;2023-03-01T10:45:14;7.20;;;4.10;;
21152;SDS011;10734;44.792;20.482;2023-03-01T10:47:41;8.25;;;5.32;;
21152;SDS011;10734;44.792;20.482;2023-03-01T10:50:17;9.30;;;4.65;;
21152;SDS011;10734;44.792;20.482;2023-03-01T10:52:55;11.30;;;4.93;;
21152;SDS011;10734;44.792;20.482;2023-03-01T10:57:55;10.77;;;6.03;;
21152;SDS011;10734;44.792;20.482;2023-03-01T11:00:32;8.90;;;5.05;;
21152;SDS011;10734;44.792;20.482;2023-03-01T11:05:25;8.60;;;5.28;;
21152;SDS011;10734;44.792;20.482;2023-03-01T11:07:55;6.30;;;3.70;;
21152;SDS011;10734;44.792;20.482;2023-03-01T11:10:25;15.05;;;5.60;;
21152;SDS011;10734;44.792;20.482;2023-03-01T11:12:53;10.80;;;6.53;;
21152;SDS011;10734;44.792;20.482;2023-03-01T11:15:32;13.38;;;6.57;;
21152;SDS011;10734;44.792;20.482;2023-03-01T11:17:58;9.75;;;5.45;;
21152;SDS011;10734;44.792;20.482;2023-03-01T11:20:38;7.72;;;4.75;;
21152;SDS011;10734;44.792;20.482;2023-03-01T11:23:09;10.27;;;4.95;;
21152;SDS011;10734;44.792;20.482;2023-03-01T11:25:54;15.77;;;8.15;;
21152;SDS011;10734;44.792;20.482;2023-03-01T11:28:22;13.73;;;5.75;;
21152;SDS011;10734;44.792;20.482;2023-03-01T11:30:58;7.00;;;4.95;;
21152;SDS011;10734;44.792;20.482;2023-03-01T11:36:10;10.57;;;6.05;;
21152;SDS011;10734;44.792;20.482;2023-03-01T11:38:41;9.70;;;4.28;;
21152;SDS011;10734;44.792;20.482;2023-03-01T11:43:51;10.80;;;4.15;;
21152;SDS011;10734;44.792;20.482;2023-03-01T11:48:58;10.90;;;6.03;;
21152;SDS011;10734;44.792;20.482;2023-03-01T11:56:47;11.80;;;5.35;;
21152;SDS011;10734;44.792;20.482;2023-03-01T12:07:27;15.55;;;6.10;;
21152;SDS011;10734;44.792;20.482;2023-03-01T12:15:24;15.73;;;4.57;;
21152;SDS011;10734;44.792;20.482;2023-03-01T12:30:31;9.68;;;5.07;;
21152;SDS011;10734;44.792;20.482;2023-03-01T12:43:22;68.72;;;34.67;;
21152;SDS011;10734;44.792;20.482;2023-03-01T12:46:00;14.60;;;6.85;;
21152;SDS011;10734;44.792;20.482;2023-03-01T12:51:03;126.63;;;99.95;;
21152;SDS011;10734;44.792;20.482;2023-03-01T12:53:35;34.45;;;27.95;;
21152;SDS011;10734;44.792;20.482;2023-03-01T12:56:06;28.83;;;25.33;;
21152;SDS011;10734;44.792;20.482;2023-03-01T13:06:32;29.25;;;21.70;;
21152;SDS011;10734;44.792;20.482;2023-03-01T13:09:18;27.98;;;17.48;;
21152;SDS011;10734;44.792;20.482;2023-03-01T13:11:46;34.25;;;21.23;;
21152;SDS011;10734;44.792;20.482;2023-03-01T13:16:51;42.53;;;27.55;;
21152;SDS011;10734;44.792;20.482;2023-03-01T13:19:19;39.67;;;25.75;;
21152;SDS011;10734;44.792;20.482;2023-03-01T13:21:47;17.88;;;12.45;;
21152;SDS011;10734;44.792;20.482;2023-03-01T13:24:48;20.88;;;9.57;;
21152;SDS011;10734;44.792;20.482;2023-03-01T13:32:31;13.65;;;7.05;;
21152;SDS011;10734;44.792;20.482;2023-03-01T13:37:45;9.05;;;6.45;;
21152;SDS011;10734;44.792;20.482;2023-03-01T13:42:49;16.55;;;6.25;;
21152;SDS011;10734;44.792;20.482;2023-03-01T13:48:30;15.15;;;7.57;;
21152;SDS011;10734;44.792;20.482;2023-03-01T13:51:08;15.15;;;8.82;;
21152;SDS011;10734;44.792;20.482;2023-03-01T13:53:36;17.95;;;9.07;;
21152;SDS011;10734;44.792;20.482;2023-03-01T13:56:38;82.03;;;44.05;;
21152;SDS011;10734;44.792;20.482;2023-03-01T13:58:59;489.95;;;264.52;;
21152;SDS011;10734;44.792;20.482;2023-03-01T14:01:34;509.08;;;259.15;;
21152;SDS011;10734;44.792;20.482;2023-03-01T14:04:03;225.23;;;122.13;;
21152;SDS011;10734;44.792;20.482;2023-03-01T14:06:43;25.33;;;19.03;;
21152;SDS011;10734;44.792;20.482;2023-03-01T14:09:17;21.23;;;12.48;;
21152;SDS011;10734;44.792;20.482;2023-03-01T14:11:52;31.15;;;19.45;;
21152;SDS011;10734;44.792;20.482;2023-03-01T14:14:26;21.85;;;15.45;;
21152;SDS011;10734;44.792;20.482;2023-03-01T14:19:31;26.48;;;16.88;;
21152;SDS011;10734;44.792;20.482;2023-03-01T14:22:12;16.88;;;12.45;;
21152;SDS011;10734;44.792;20.482;2023-03-01T14:24:50;18.38;;;8.80;;
21152;SDS011;10734;44.792;20.482;2023-03-01T14:27:21;14.07;;;9.38;;
21152;SDS011;10734;44.792;20.482;2023-03-01T14:29:59;21.25;;;10.93;;
21152;SDS011;10734;44.792;20.482;2023-03-01T14:32:28;20.42;;;10.63;;
21152;SDS011;10734;44.792;20.482;2023-03-01T14:34:57;21.08;;;10.20;;
21152;SDS011;10734;44.792;20.482;2023-03-01T14:37:26;18.40;;;10.38;;
21152;SDS011;10734;44.792;20.482;2023-03-01T14:39:59;123.28;;;67.05;;
21152;SDS011;10734;44.792;20.482;2023-03-01T14:42:36;105.55;;;63.97;;
21152;SDS011;10734;44.792;20.482;2023-03-01T14:45:03;55.63;;;36.17;;
21152;SDS011;10734;44.792;20.482;2023-03-01T14:47:33;26.63;;;20.98;;
21152;SDS011;10734;44.792;20.482;2023-03-01T14:50:07;18.98;;;13.40;;
21152;SDS011;10734;44.792;20.482;2023-03-01T14:52:35;31.58;;;17.13;;
21152;SDS011;10734;44.792;20.482;2023-03-01T14:55:04;54.58;;;32.60;;
21152;SDS011;10734;44.792;20.482;2023-03-01T14:57:31;32.97;;;17.33;;
21152;SDS011;10734;44.792;20.482;2023-03-01T14:59:58;31.48;;;17.73;;
21152;SDS011;10734;44.792;20.482;2023-03-01T15:02:27;31.83;;;16.02;;
21152;SDS011;10734;44.792;20.482;2023-03-01T15:04:55;36.30;;;19.25;;
21152;SDS011;10734;44.792;20.482;2023-03-01T15:07:28;25.70;;;12.93;;
21152;SDS011;10734;44.792;20.482;2023-03-01T15:09:55;29.75;;;14.15;;
21152;SDS011;10734;44.792;20.482;2023-03-01T15:14:55;22.50;;;11.45;;
21152;SDS011;10734;44.792;20.482;2023-03-01T15:17:33;26.48;;;13.63;;
21152;SDS011;10734;44.792;20.482;2023-03-01T15:20:01;31.38;;;16.20;;
21152;SDS011;10734;44.792;20.482;2023-03-01T15:22:29;24.42;;;13.52;;
21152;SDS011;10734;44.792;20.482;2023-03-01T15:24:55;27.60;;;13.85;;
21152;SDS011;10734;44.792;20.482;2023-03-01T15:27:22;23.52;;;14.13;;
21152;SDS011;10734;44.792;20.482;2023-03-01T15:29:50;32.10;;;16.58;;
21152;SDS011;10734;44.792;20.482;2023-03-01T15:32:30;23.25;;;12.82;;
21152;SDS011;10734;44.792;20.482;2023-03-01T15:34:58;22.63;;;12.80;;
21152;SDS011;10734;44.792;20.482;2023-03-01T15:40:28;21.45;;;11.75;;
21152;SDS011;10734;44.792;20.482;2023-03-01T15:43:00;23.63;;;12.82;;
21152;SDS011;10734;44.792;20.482;2023-03-01T15:45:27;26.27;;;14.68;;
21152;SDS011;10734;44.792;20.482;2023-03-01T15:50:25;26.73;;;13.95;;
21152;SDS011;10734;44.792;20.482;2023-03-01T15:52:52;24.45;;;13.73;;
21152;SDS011;10734;44.792;20.482;2023-03-01T15:55:20;31.13;;;14.70;;
21152;SDS011;10734;44.792;20.482;2023-03-01T15:57:47;29.00;;;14.07;;
21152;SDS011;10734;44.792;20.482;2023-03-01T16:00:14;25.52;;;14.27;;
21152;SDS011;10734;44.792;20.482;2023-03-01T16:02:41;26.00;;;14.25;;
21152;SDS011;10734;44.792;20.482;2023-03-01T16:05:22;31.95;;;15.57;;
21152;SDS011;10734;44.792;20.482;2023-03-01T16:07:50;18.00;;;10.27;;
21152;SDS011;10734;44.792;20.482;2023-03-01T16:10:16;33.33;;;18.13;;
21152;SDS011;10734;44.792;20.482;2023-03-01T16:12:43;32.67;;;12.68;;